Time;durP1;ratioP1;P1;durP2;ratioP2;P2;SDS_P1;SDS_P2;PMS_P1;PMS_P2;Temp;Humidity;BMP_temperature;BMP_pressure;BME280_temperature;BME280_humidity;BME280_pressure;Samples;Min_cycle;Max_cycle;Signal;HPM_P1;HPM_P2
2022/06/14 00:01:03;;;;;;;12.57;3.40;;;12.50;99.90;;;;;;6342669;28;20056;-88
2022/06/14 00:04:05;;;;;;;11.82;3.15;;;12.40;99.90;;;;;;6335093;28;20036;-87
2022/06/14 00:07:08;;;;;;;15.90;3.53;;;12.30;99.90;;;;;;6332709;28;20048;-87
2022/06/14 00:10:11;;;;;;;12.65;3.10;;;12.30;99.90;;;;;;6343982;28;20043;-86
2022/06/14 00:13:14;;;;;;;13.68;3.80;;;12.20;99.90;;;;;;6344087;28;20047;-89
2022/06/14 00:16:17;;;;;;;13.48;3.17;;;12.20;99.90;;;;;;6336395;28;20048;-90
2022/06/14 00:19:19;;;;;;;;;;;12.20;99.90;;;;;;6339247;28;20048;-87
2022/06/14 00:22:21;;;;;;;13.10;3.42;;;12.10;99.90;;;;;;6342758;28;19927;-90
2022/06/14 00:25:27;;;;;;;11.02;3.22;;;12.00;99.90;;;;;;6326760;28;20044;-86
2022/06/14 00:28:32;;;;;;;14.82;3.80;;;12.00;99.90;;;;;;6322087;28;20488;-86
2022/06/14 00:31:34;;;;;;;11.63;3.72;;;12.00;99.90;;;;;;6360801;27;20047;-82
2022/06/14 00:34:36;;;;;;;15.80;3.60;;;11.90;99.90;;;;;;6329504;28;20092;-83
2022/06/14 00:37:39;;;;;;;16.50;3.25;;;11.90;99.90;;;;;;6330046;28;20486;-84
2022/06/14 00:40:51;;;;;;;13.82;3.60;;;12.00;99.90;;;;;;6346514;28;20040;-85
2022/06/14 00:43:53;;;;;;;15.60;3.50;;;12.00;99.90;;;;;;6345806;28;20142;-85
2022/06/14 00:46:59;;;;;;;12.98;3.30;;;12.00;99.90;;;;;;6339573;28;20077;-87
2022/06/14 00:50:05;;;;;;;11.93;3.38;;;12.00;99.90;;;;;;6318777;28;20135;-87
2022/06/14 00:53:13;;;;;;;11.13;3.53;;;11.90;99.90;;;;;;6309110;28;20123;-87
2022/06/14 00:56:21;;;;;;;10.20;3.08;;;11.90;99.90;;;;;;6315458;28;20044;-86
2022/06/14 00:59:27;;;;;;;19.45;3.83;;;11.80;99.90;;;;;;6321219;28;20143;-86
2022/06/14 01:02:33;;;;;;;13.90;3.92;;;11.80;99.90;;;;;;6322867;28;20062;-85
2022/06/14 01:09:01;;;;;;;14.00;4.43;;;11.70;99.90;;;;;;6314664;28;20048;-86
2022/06/14 01:12:09;;;;;;;16.10;3.72;;;11.60;99.90;;;;;;6313518;28;20059;-86
2022/06/14 01:15:17;;;;;;;13.20;4.03;;;11.50;99.90;;;;;;6315345;28;20094;-85
2022/06/14 01:18:20;;;;;;;17.58;4.40;;;11.50;99.90;;;;;;6319682;28;20131;-86
2022/06/14 01:21:22;;;;;;;16.67;3.90;;;11.40;99.90;;;;;;6321263;28;20450;-85
2022/06/14 01:24:25;;;;;;;12.80;4.03;;;11.40;99.90;;;;;;6326394;28;20051;-85
2022/06/14 01:27:28;;;;;;;15.32;4.13;;;11.40;99.90;;;;;;6320635;28;20055;-85
2022/06/14 01:30:36;;;;;;;12.82;4.30;;;11.40;99.90;;;;;;6345786;28;20051;-86
2022/06/14 01:33:44;;;;;;;18.55;4.60;;;11.30;99.90;;;;;;6336596;28;20044;-86
2022/06/14 01:36:46;;;;;;;13.00;3.75;;;11.30;99.90;;;;;;6331437;28;20056;-86
2022/06/14 01:39:50;;;;;;;15.35;4.43;;;11.30;99.90;;;;;;6328037;28;20043;-86
2022/06/14 01:42:58;;;;;;;;;;;11.30;99.90;;;;;;6323193;28;20419;-86
2022/06/14 01:46:06;;;;;;;15.02;4.32;;;11.20;99.90;;;;;;6321400;28;20399;-86
2022/06/14 01:52:48;;;;;;;14.05;4.40;;;11.20;99.90;;;;;;6342453;28;20082;-85
2022/06/14 01:55:58;;;;;;;9.93;3.67;;;11.10;99.90;;;;;;6346678;28;20048;-86
2022/06/14 01:59:11;;;;;;;12.90;3.90;;;11.10;99.90;;;;;;6310860;28;20131;-85
2022/06/14 02:02:23;;;;;;;13.98;4.25;;;11.10;99.90;;;;;;6310459;28;20407;-86
2022/06/14 02:05:29;;;;;;;14.88;4.03;;;11.10;99.90;;;;;;6346617;28;20040;-85
2022/06/14 02:08:36;;;;;;;11.60;3.60;;;11.00;99.90;;;;;;6341306;28;20407;-85
2022/06/14 02:11:39;;;;;;;12.10;4.25;;;11.00;99.90;;;;;;6344274;28;20052;-85
2022/06/14 02:14:47;;;;;;;17.42;4.53;;;10.90;99.90;;;;;;6339755;28;20135;-85
2022/06/14 02:17:57;;;;;;;14.02;4.18;;;10.90;99.90;;;;;;6304087;28;20156;-85
2022/06/14 02:21:06;;;;;;;13.90;4.28;;;10.90;99.90;;;;;;6320360;28;20151;-85
2022/06/14 02:24:15;;;;;;;15.38;4.90;;;10.80;99.90;;;;;;6334592;28;20518;-84
2022/06/14 02:27:26;;;;;;;15.57;4.72;;;10.90;99.90;;;;;;6338928;28;20052;-85
2022/06/14 02:30:31;;;;;;;18.33;4.70;;;10.80;99.90;;;;;;6314321;28;20181;-85
2022/06/14 02:33:38;;;;;;;11.80;3.80;;;10.80;99.90;;;;;;6327487;28;20464;-85
2022/06/14 02:36:46;;;;;;;10.48;4.07;;;10.80;99.90;;;;;;6342266;28;20093;-86
2022/06/14 02:39:54;;;;;;;14.23;4.32;;;10.80;99.90;;;;;;6333367;28;20081;-86
2022/06/14 02:43:04;;;;;;;14.15;4.38;;;10.80;99.90;;;;;;6302231;28;20413;-85
2022/06/14 02:46:13;;;;;;;16.75;4.13;;;10.80;99.90;;;;;;6309312;28;20097;-86
2022/06/14 02:49:20;;;;;;;13.77;4.65;;;10.80;99.90;;;;;;6321825;28;20045;-87
2022/06/14 02:52:28;;;;;;;12.38;2.80;;;10.90;99.90;;;;;;6315423;28;20063;-87
2022/06/14 02:55:34;;;;;;;13.82;4.00;;;10.90;99.90;;;;;;6334025;28;20055;-84
2022/06/14 02:58:44;;;;;;;12.50;4.70;;;11.00;99.90;;;;;;6320221;28;20048;-86
2022/06/14 03:01:52;;;;;;;14.35;4.05;;;11.20;99.90;;;;;;6319517;28;20055;-87
2022/06/14 03:05:00;;;;;;;14.77;4.38;;;11.20;99.90;;;;;;6320257;28;20423;-85
2022/06/14 03:08:09;;;;;;;14.73;4.25;;;11.20;99.90;;;;;;6308428;28;20484;-85
2022/06/14 03:11:21;;;;;;;17.08;4.63;;;11.20;99.90;;;;;;6320679;28;20131;-87
2022/06/14 03:14:34;;;;;;;16.98;4.53;;;11.20;99.90;;;;;;6319480;28;20040;-85
2022/06/14 03:17:47;;;;;;;19.75;5.10;;;11.30;99.90;;;;;;6317143;28;20051;-87
2022/06/14 03:20:54;;;;;;;;;;;11.30;99.90;;;;;;6320277;28;20052;-86
2022/06/14 03:24:05;;;;;;;8.65;2.60;;;11.30;99.90;;;;;;6323436;28;19920;-86
2022/06/14 03:27:12;;;;;;;16.52;4.68;;;11.30;99.90;;;;;;6326149;28;20097;-85
2022/06/14 03:30:21;;;;;;;11.38;4.05;;;11.40;99.90;;;;;;6322791;28;20040;-82
2022/06/14 03:33:34;;;;;;;13.85;3.85;;;11.40;99.90;;;;;;6340491;28;20451;-86
2022/06/14 03:36:36;;;;;;;14.70;4.55;;;11.40;99.90;;;;;;6337968;28;20058;-79
2022/06/14 03:39:43;;;;;;;13.15;4.35;;;11.40;99.90;;;;;;6313808;28;20066;-83
2022/06/14 03:42:45;;;;;;;16.13;4.20;;;11.40;99.90;;;;;;6320518;28;20055;-80
2022/06/14 03:45:57;;;;;;;12.20;3.65;;;11.50;99.90;;;;;;6321254;28;20040;-83
2022/06/14 03:49:04;;;;;;;10.63;3.85;;;11.60;99.90;;;;;;6321222;28;20404;-83
2022/06/14 03:52:27;;;;;;;15.73;3.80;;;11.70;99.90;;;;;;6311126;28;20051;-81
2022/06/14 03:55:47;;;;;;;13.23;4.03;;;11.70;99.90;;;;;;6303817;28;20056;-83
2022/06/14 03:59:07;;;;;;;15.90;4.03;;;11.60;99.90;;;;;;6323684;28;20040;-82
2022/06/14 04:02:16;;;;;;;12.63;3.65;;;11.60;99.90;;;;;;6323621;28;20520;-83
2022/06/14 04:05:30;;;;;;;13.98;2.42;;;11.80;99.90;;;;;;6323061;28;20047;-83
2022/06/14 04:08:40;;;;;;;7.88;2.65;;;12.10;99.90;;;;;;6298694;28;20059;-82
2022/06/14 04:11:50;;;;;;;62.03;7.32;;;12.30;99.90;;;;;;6299246;28;20084;-83
2022/06/14 04:15:04;;;;;;;10.93;3.17;;;12.40;99.90;;;;;;6311259;28;20052;-82
2022/06/14 04:18:41;;;;;;;11.25;3.08;;;12.20;99.90;;;;;;6304850;28;20481;-82
2022/06/14 04:21:53;;;;;;;8.45;2.63;;;12.30;99.90;;;;;;6298799;28;20048;-82
2022/06/14 04:25:00;;;;;;;9.45;3.20;;;12.40;99.90;;;;;;6323098;28;20177;-82
2022/06/14 04:28:14;;;;;;;10.20;3.25;;;12.40;99.90;;;;;;6321576;28;20055;-83
2022/06/14 04:31:19;;;;;;;14.00;3.63;;;12.60;99.90;;;;;;6316224;28;20433;-81
2022/06/14 04:34:31;;;;;;;13.88;3.83;;;12.60;99.90;;;;;;6319371;28;20213;-82
2022/06/14 04:37:37;;;;;;;12.68;4.07;;;12.40;99.90;;;;;;6322027;28;20048;-78
2022/06/14 04:40:43;;;;;;;20.13;4.40;;;12.20;99.90;;;;;;6321537;28;20420;-81
2022/06/14 04:43:50;;;;;;;12.23;3.58;;;12.00;99.90;;;;;;6325186;28;20040;-80
2022/06/14 04:46:56;;;;;;;14.88;4.10;;;11.90;99.90;;;;;;6328658;28;20053;-75
2022/06/14 04:50:05;;;;;;;17.65;4.10;;;11.90;99.90;;;;;;6313816;28;20050;-76
2022/06/14 04:53:13;;;;;;;13.95;4.00;;;12.00;99.90;;;;;;6333628;27;20059;-75
2022/06/14 04:56:21;;;;;;;15.30;4.05;;;12.00;99.90;;;;;;6328353;28;20399;-75
2022/06/14 04:59:32;;;;;;;13.15;3.83;;;11.90;99.90;;;;;;6318148;28;20047;-74
2022/06/14 05:02:37;;;;;;;15.13;3.90;;;12.00;99.90;;;;;;6345799;27;20400;-74
2022/06/14 05:05:44;;;;;;;16.20;3.38;;;12.30;99.90;;;;;;6319139;28;20071;-73
2022/06/14 05:08:53;;;;;;;14.65;3.80;;;13.00;99.90;;;;;;6915813;22;20414;-62
2022/06/14 05:12:05;;;;;;;16.27;3.13;;;13.50;99.90;;;;;;6255511;28;20072;-61
2022/06/14 05:15:10;;;;;;;12.10;2.92;;;13.90;99.90;;;;;;6259754;28;20052;-61
2022/06/14 05:18:16;;;;;;;11.50;3.03;;;14.30;99.90;;;;;;6167979;28;20536;-61
2022/06/14 05:21:23;;;;;;;14.95;3.33;;;14.40;99.90;;;;;;6222734;28;20057;-64
2022/06/14 05:24:27;;;;;;;12.18;2.85;;;14.30;99.90;;;;;;6209353;28;20411;-65
2022/06/14 05:27:44;;;;;;;14.07;3.17;;;14.10;99.90;;;;;;6217196;28;20052;-63
2022/06/14 05:30:53;;;;;;;17.63;3.72;;;13.90;99.90;;;;;;6195881;28;20064;-67
2022/06/14 05:34:00;;;;;;;11.23;3.17;;;13.80;99.90;;;;;;6220172;28;20514;-67
2022/06/14 05:37:14;;;;;;;13.52;3.67;;;13.70;99.90;;;;;;6217592;28;20076;-67
2022/06/14 05:40:25;;;;;;;10.40;2.83;;;13.70;99.90;;;;;;6216923;28;20105;-67
2022/06/14 05:43:31;;;;;;;12.68;2.70;;;13.80;99.90;;;;;;6207187;28;20050;-65
2022/06/14 05:46:38;;;;;;;13.93;3.22;;;13.80;99.90;;;;;;6203283;28;20048;-65
2022/06/14 05:49:45;;;;;;;11.85;2.78;;;13.80;99.90;;;;;;6202444;28;20045;-66
2022/06/14 05:52:53;;;;;;;13.23;2.35;;;14.00;99.90;;;;;;6233767;28;20042;-65
2022/06/14 05:55:59;;;;;;;13.20;2.78;;;13.90;99.90;;;;;;6233372;28;20049;-66
2022/06/14 05:59:07;;;;;;;12.43;2.40;;;14.10;99.90;;;;;;6211511;28;20196;-66
2022/06/14 06:02:15;;;;;;;14.38;2.63;;;14.20;99.90;;;;;;6202739;28;20498;-66
2022/06/14 06:05:22;;;;;;;10.55;2.42;;;14.60;99.90;;;;;;6204136;28;20049;-66
2022/06/14 06:08:33;;;;;;;16.98;2.70;;;14.90;99.90;;;;;;6219476;28;20049;-64
2022/06/14 06:11:38;;;;;;;10.05;2.30;;;15.20;99.90;;;;;;6220602;28;20046;-65
2022/06/14 06:14:46;;;;;;;8.98;2.53;;;15.50;99.90;;;;;;6196892;28;20058;-69
2022/06/14 06:17:53;;;;;;;10.65;2.25;;;15.70;99.90;;;;;;6209741;28;20052;-70
2022/06/14 06:21:02;;;;;;;11.55;2.67;;;15.70;99.90;;;;;;6212536;28;20042;-70
2022/06/14 06:24:15;;;;;;;9.57;2.05;;;15.60;99.90;;;;;;6222309;28;20045;-69
2022/06/14 06:27:18;;;;;;;12.07;2.20;;;15.50;99.90;;;;;;6197958;28;20042;-68
2022/06/14 06:30:25;;;;;;;9.60;2.63;;;15.40;99.90;;;;;;6208671;28;20053;-68
2022/06/14 06:33:30;;;;;;;9.07;2.05;;;15.20;99.90;;;;;;6221532;28;20053;-67
2022/06/14 06:36:47;;;;;;;8.93;2.15;;;15.20;99.90;;;;;;6221960;28;20049;-66
2022/06/14 06:39:56;;;;;;;15.00;2.67;;;15.40;99.90;;;;;;6221259;28;20046;-66
2022/06/14 06:43:02;;;;;;;10.57;2.15;;;15.60;99.90;;;;;;6220958;28;20053;-66
2022/06/14 06:46:10;;;;;;;11.20;2.15;;;15.60;99.90;;;;;;6203874;28;20057;-69
2022/06/14 06:49:15;;;;;;;8.23;1.75;;;15.60;99.90;;;;;;6229740;28;20417;-66
2022/06/14 06:52:22;;;;;;;9.13;2.08;;;15.40;99.90;;;;;;6204552;28;20505;-70
2022/06/14 06:55:36;;;;;;;7.90;2.30;;;15.40;99.90;;;;;;6204751;28;20056;-68
2022/06/14 06:58:44;;;;;;;11.98;2.60;;;15.40;99.90;;;;;;6224256;28;20041;-68
2022/06/14 07:01:47;;;;;;;9.23;2.10;;;15.50;99.90;;;;;;6226706;28;20042;-68
2022/06/14 07:05:05;;;;;;;9.25;2.05;;;15.60;99.90;;;;;;6236890;28;20497;-68
2022/06/14 07:08:16;;;;;;;9.18;1.77;;;15.80;99.90;;;;;;6246897;28;20123;-68
2022/06/14 07:11:23;;;;;;;8.90;1.80;;;16.30;99.90;;;;;;6187733;28;20054;-68
2022/06/14 07:14:30;;;;;;;7.65;1.70;;;16.70;99.90;;;;;;6199780;28;20050;-67
2022/06/14 07:17:38;;;;;;;7.25;1.70;;;17.00;99.90;;;;;;6205129;28;20061;-68
2022/06/14 07:20:52;;;;;;;7.80;1.83;;;17.60;99.90;;;;;;6205615;28;20058;-69
2022/06/14 07:23:59;;;;;;;6.72;1.73;;;18.00;99.90;;;;;;6250810;28;20050;-68
2022/06/14 07:27:08;;;;;;;6.95;1.65;;;18.40;99.90;;;;;;6240937;28;20490;-68
2022/06/14 07:30:15;;;;;;;5.55;1.60;;;18.50;99.90;;;;;;6208664;28;20054;-69
2022/06/14 07:33:18;;;;;;;5.75;1.67;;;19.00;99.90;;;;;;6225897;28;20069;-69
2022/06/14 07:36:28;;;;;;;8.18;1.73;;;19.30;99.90;;;;;;6207375;28;20060;-69
2022/06/14 07:39:41;;;;;;;6.82;1.38;;;19.50;99.90;;;;;;6214056;28;20046;-68
2022/06/14 07:42:52;;;;;;;5.30;1.27;;;19.70;99.90;;;;;;6206171;28;20045;-68
2022/06/14 07:45:58;;;;;;;8.77;1.90;;;20.00;99.90;;;;;;6200645;28;20128;-68
2022/06/14 07:49:06;;;;;;;6.93;1.65;;;20.30;99.90;;;;;;6202718;28;20050;-70
2022/06/14 07:52:15;;;;;;;4.88;1.00;;;20.40;99.90;;;;;;6221021;28;20038;-71
2022/06/14 07:55:22;;;;;;;7.07;1.67;;;20.30;99.90;;;;;;6231001;28;20501;-68
2022/06/14 07:58:31;;;;;;;5.43;1.42;;;19.90;99.20;;;;;;6214511;28;20060;-70
2022/06/14 08:01:39;;;;;;;5.97;1.65;;;18.60;99.90;;;;;;6214952;28;20057;-68
2022/06/14 08:04:47;;;;;;;5.43;1.38;;;18.10;99.90;;;;;;6224639;28;20116;-68
2022/06/14 08:07:52;;;;;;;7.15;1.50;;;18.20;99.90;;;;;;6223490;28;20053;-68
2022/06/14 08:10:58;;;;;;;3.95;1.25;;;18.40;99.90;;;;;;6221488;28;20058;-68
2022/06/14 08:14:07;;;;;;;7.68;2.08;;;18.80;99.90;;;;;;6222802;28;21533;-66
2022/06/14 08:17:11;;;;;;;13.38;1.80;;;18.90;99.90;;;;;;6223054;28;20479;-68
2022/06/14 08:20:22;;;;;;;5.03;1.60;;;19.20;99.90;;;;;;6204554;28;20045;-68
2022/06/14 08:23:30;;;;;;;4.00;1.30;;;19.70;99.90;;;;;;6204670;28;20054;-66
2022/06/14 08:26:37;;;;;;;6.63;1.48;;;19.80;99.60;;;;;;6222761;28;20171;-69
2022/06/14 08:29:45;;;;;;;6.00;1.30;;;19.60;99.90;;;;;;6220067;28;20046;-69
2022/06/14 08:32:55;;;;;;;7.20;1.33;;;19.30;99.90;;;;;;6200318;28;20052;-69
2022/06/14 08:36:01;;;;;;;4.15;1.27;;;18.90;99.70;;;;;;6213935;28;20411;-69
2022/06/14 08:39:10;;;;;;;5.05;1.27;;;18.60;99.90;;;;;;6212286;28;20172;-70
2022/06/14 08:42:20;;;;;;;5.45;1.45;;;18.80;99.90;;;;;;6197256;28;20458;-69
2022/06/14 08:45:35;;;;;;;7.65;1.20;;;18.90;99.60;;;;;;6228934;28;20191;-69
2022/06/14 08:48:41;;;;;;;6.70;1.40;;;18.70;99.80;;;;;;6216354;28;20058;-68
2022/06/14 08:52:04;;;;;;;3.70;1.10;;;18.50;99.90;;;;;;6191034;28;20054;-69
2022/06/14 08:55:31;;;;;;;5.75;1.40;;;18.50;99.90;;;;;;6219765;28;20065;-69
2022/06/14 08:59:00;;;;;;;5.13;1.10;;;18.70;99.90;;;;;;6166927;28;20395;-69
2022/06/14 09:02:25;;;;;;;4.65;1.30;;;18.90;99.80;;;;;;6199886;28;20136;-69
2022/06/14 09:05:52;;;;;;;4.13;1.20;;;19.10;99.60;;;;;;6213412;28;20047;-69
2022/06/14 09:09:17;;;;;;;6.45;1.70;;;19.10;99.90;;;;;;6215164;28;20087;-69
2022/06/14 09:12:54;;;;;;;3.65;1.30;;;19.00;99.90;;;;;;6205977;28;20510;-69
2022/06/14 09:16:28;;;;;;;5.00;1.27;;;18.70;99.20;;;;;;6171909;28;20528;-69
2022/06/14 09:19:55;;;;;;;3.10;1.10;;;18.30;99.90;;;;;;6192143;28;20050;-69
2022/06/14 09:23:23;;;;;;;5.90;1.63;;;18.20;99.90;;;;;;6192514;28;20391;-69
2022/06/14 09:26:42;;;;;;;7.03;1.42;;;18.60;99.90;;;;;;6209388;28;20128;-69
2022/06/14 09:30:08;;;;;;;4.18;1.40;;;18.90;99.90;;;;;;6195211;28;20054;-69
2022/06/14 09:34:00;;;;;;;5.38;1.20;;;19.10;99.30;;;;;;6213114;28;20521;-67
2022/06/14 09:37:31;;;;;;;6.10;1.23;;;19.20;98.10;;;;;;6212064;28;20099;-68
2022/06/14 09:41:07;;;;;;;2.17;0.90;;;19.20;99.00;;;;;;6216492;28;20050;-68
2022/06/14 09:44:40;;;;;;;5.20;1.23;;;19.40;99.20;;;;;;6210539;28;20660;-68
2022/06/14 09:48:22;;;;;;;3.40;1.15;;;19.70;99.50;;;;;;6216082;28;20046;-66
2022/06/14 09:51:50;;;;;;;5.78;1.73;;;20.10;98.90;;;;;;6211010;28;20056;-68
2022/06/14 09:55:35;;;;;;;4.32;1.20;;;20.00;97.60;;;;;;6198120;28;20050;-64
2022/06/14 09:59:07;;;;;;;7.22;2.28;;;19.60;98.70;;;;;;6210700;28;20050;-68
2022/06/14 10:02:19;;;;;;;4.40;1.50;;;19.50;98.20;;;;;;6209284;28;20050;-67
2022/06/14 10:05:43;;;;;;;4.30;1.20;;;19.20;98.40;;;;;;6187021;28;20049;-70
2022/06/14 10:09:11;;;;;;;6.07;1.05;;;18.80;98.00;;;;;;6210071;28;20072;-68
2022/06/14 10:12:33;;;;;;;6.10;1.40;;;18.50;98.20;;;;;;6211591;28;20049;-69
2022/06/14 10:15:47;;;;;;;6.90;1.30;;;18.40;98.60;;;;;;6206996;28;20049;-68
2022/06/14 10:19:13;;;;;;;3.75;1.20;;;18.40;99.20;;;;;;6217918;28;20062;-67
2022/06/14 10:22:27;;;;;;;5.60;1.50;;;18.30;97.10;;;;;;6197369;28;20042;-68
2022/06/14 10:25:36;;;;;;;5.20;1.60;;;18.20;98.60;;;;;;6198766;28;20494;-67
2022/06/14 10:28:58;;;;;;;2.47;1.38;;;18.00;98.40;;;;;;6230141;28;20045;-67
2022/06/14 10:32:24;;;;;;;5.78;2.13;;;18.00;99.40;;;;;;6230983;28;20053;-68
2022/06/14 10:35:34;;;;;;;3.85;1.50;;;18.00;99.90;;;;;;6248130;28;20054;-69
2022/06/14 10:39:06;;;;;;;6.15;2.15;;;18.10;99.90;;;;;;6226668;28;20065;-68
2022/06/14 10:42:16;;;;;;;6.95;1.70;;;18.10;99.90;;;;;;6226470;28;20505;-67
2022/06/14 10:45:27;;;;;;;6.63;1.90;;;18.20;99.90;;;;;;6224524;28;20065;-67
2022/06/14 10:49:02;;;;;;;7.85;1.80;;;18.40;99.90;;;;;;6226616;28;20461;-68
2022/06/14 10:52:36;;;;;;;9.50;2.10;;;18.50;99.90;;;;;;6209112;28;20062;-67
2022/06/14 10:55:55;;;;;;;;;;;18.40;99.60;;;;;;6193524;28;20046;-67
2022/06/14 10:59:32;;;;;;;7.30;1.75;;;18.40;99.90;;;;;;6226646;28;19928;-68
2022/06/14 11:02:53;;;;;;;5.63;1.77;;;18.40;99.90;;;;;;6209410;28;20171;-67
2022/06/14 11:06:16;;;;;;;6.68;2.05;;;18.40;99.90;;;;;;6207296;28;20054;-68
2022/06/14 11:09:30;;;;;;;4.07;1.50;;;18.50;99.90;;;;;;6201529;28;20054;-67
2022/06/14 11:12:45;;;;;;;6.05;1.65;;;18.50;99.90;;;;;;6201638;28;20148;-67
2022/06/14 11:15:53;;;;;;;4.70;1.88;;;18.60;99.90;;;;;;6201741;28;20057;-67
2022/06/14 11:19:23;;;;;;;6.10;2.00;;;18.80;99.90;;;;;;6226722;28;20049;-67
2022/06/14 11:22:35;;;;;;;4.65;1.55;;;18.90;99.90;;;;;;6226415;28;20054;-68
2022/06/14 11:25:44;;;;;;;4.25;1.50;;;18.90;99.90;;;;;;6225200;28;20113;-69
2022/06/14 11:28:52;;;;;;;4.35;1.40;;;18.90;99.90;;;;;;6225001;28;20053;-69
2022/06/14 11:32:02;;;;;;;6.45;1.75;;;18.80;99.90;;;;;;6225423;28;20050;-68
2022/06/14 11:35:18;;;;;;;7.85;1.55;;;18.80;99.90;;;;;;6224801;28;20478;-68
2022/06/14 11:38:45;;;;;;;8.57;2.33;;;18.70;99.90;;;;;;6228915;28;20056;-67
2022/06/14 11:41:49;;;;;;;9.55;2.03;;;18.80;99.90;;;;;;6223862;28;20049;-67
2022/06/14 11:45:07;;;;;;;4.75;1.40;;;18.90;99.90;;;;;;6225620;28;20042;-68
2022/06/14 11:48:20;;;;;;;4.65;1.38;;;19.00;99.90;;;;;;6216849;28;20057;-68
2022/06/14 11:51:31;;;;;;;5.20;1.42;;;19.00;99.60;;;;;;6225571;28;20439;-68
2022/06/14 11:54:41;;;;;;;4.80;1.42;;;19.20;99.60;;;;;;6209532;28;20058;-67
2022/06/14 11:57:50;;;;;;;4.03;1.40;;;19.60;99.60;;;;;;6224021;28;20046;-67
2022/06/14 12:01:21;;;;;;;2.97;1.20;;;20.00;99.80;;;;;;6206712;28;20046;-68
2022/06/14 12:04:37;;;;;;;2.83;1.20;;;20.30;99.10;;;;;;6207979;28;20042;-67
2022/06/14 12:07:43;;;;;;;5.43;1.48;;;20.60;99.10;;;;;;6206996;28;20471;-68
2022/06/14 12:10:50;;;;;;;4.10;1.42;;;20.80;98.70;;;;;;6234015;28;20128;-69
2022/06/14 12:14:18;;;;;;;2.80;1.30;;;21.10;98.40;;;;;;6249664;28;20049;-68
2022/06/14 12:17:26;;;;;;;3.53;1.30;;;21.40;98.00;;;;;;6211211;28;20406;-68
2022/06/14 12:20:35;;;;;;;5.15;1.02;;;21.40;98.40;;;;;;6224316;28;20514;-68
2022/06/14 12:23:45;;;;;;;5.93;1.25;;;21.40;98.20;;;;;;6224199;28;20046;-68
2022/06/14 12:26:55;;;;;;;4.20;1.20;;;21.40;96.90;;;;;;6224870;28;20296;-68
2022/06/14 12:29:59;;;;;;;5.43;1.38;;;21.20;97.10;;;;;;6231531;28;20057;-68
2022/06/14 12:33:10;;;;;;;4.28;1.30;;;20.90;98.00;;;;;;6230860;28;20050;-68
2022/06/14 12:36:24;;;;;;;2.90;0.90;;;20.80;96.50;;;;;;6221770;28;22154;-68
2022/06/14 12:39:32;;;;;;;6.07;1.88;;;20.60;97.90;;;;;;6206444;28;20054;-68
2022/06/14 12:42:39;;;;;;;3.25;1.00;;;20.20;97.50;;;;;;6223998;28;20065;-68
2022/06/14 12:45:46;;;;;;;4.45;1.15;;;19.90;97.90;;;;;;6241310;28;20061;-68
2022/06/14 12:48:56;;;;;;;7.93;1.88;;;19.80;97.90;;;;;;6230974;28;20470;-68
2022/06/14 12:52:03;;;;;;;5.93;1.80;;;19.60;99.00;;;;;;6208489;28;20487;-68
2022/06/14 12:55:17;;;;;;;3.58;2.00;;;19.50;99.60;;;;;;6212191;28;20068;-68
2022/06/14 12:58:31;;;;;;;5.07;2.10;;;19.30;99.90;;;;;;6222844;28;20049;-67
2022/06/14 13:01:41;;;;;;;7.22;2.42;;;19.30;99.90;;;;;;6213668;28;20053;-68
2022/06/14 13:04:47;;;;;;;5.20;2.40;;;19.40;99.90;;;;;;6219353;28;20053;-68
2022/06/14 13:08:04;;;;;;;6.13;2.35;;;19.50;99.90;;;;;;6202526;28;20057;-68
2022/06/14 13:11:14;;;;;;;9.55;2.50;;;19.50;99.90;;;;;;6223134;28;20049;-68
2022/06/14 13:14:22;;;;;;;8.38;2.75;;;19.50;99.90;;;;;;6215161;28;20046;-67
2022/06/14 13:17:51;;;;;;;6.30;2.55;;;19.40;99.90;;;;;;6213506;28;20050;-68
2022/06/14 13:20:58;;;;;;;5.72;2.80;;;19.40;99.90;;;;;;6204955;28;20053;-68
2022/06/14 13:24:13;;;;;;;5.82;2.08;;;19.50;99.90;;;;;;6204847;28;20757;-68
2022/06/14 13:27:27;;;;;;;3.95;1.70;;;19.70;99.90;;;;;;6222730;28;20486;-69
2022/06/14 13:30:39;;;;;;;2.95;1.45;;;19.70;99.90;;;;;;6223371;28;20050;-69
2022/06/14 13:33:47;;;;;;;7.93;2.17;;;19.70;99.90;;;;;;6220878;28;20131;-69
2022/06/14 13:36:59;;;;;;;6.72;2.10;;;19.90;99.60;;;;;;6241133;28;20687;-69
2022/06/14 13:40:08;;;;;;;6.65;2.20;;;20.10;99.50;;;;;;6230012;28;20414;-69
2022/06/14 13:43:26;;;;;;;5.97;2.22;;;20.10;99.30;;;;;;6229749;28;20085;-69
2022/06/14 13:46:34;;;;;;;5.18;2.40;;;20.10;99.30;;;;;;6235451;28;20061;-69
2022/06/14 13:49:42;;;;;;;6.47;1.90;;;20.00;99.20;;;;;;6222886;28;20057;-69
2022/06/14 13:52:51;;;;;;;4.72;2.15;;;20.00;99.50;;;;;;6222416;28;20041;-69
2022/06/14 13:56:02;;;;;;;5.00;1.75;;;20.00;99.40;;;;;;6222907;28;20057;-69
2022/06/14 13:59:14;;;;;;;5.72;1.73;;;20.10;99.90;;;;;;6204849;28;20501;-69
2022/06/14 14:02:22;;;;;;;3.75;1.48;;;20.50;99.90;;;;;;6202625;28;20399;-69
2022/06/14 14:05:38;;;;;;;4.80;2.03;;;20.90;99.60;;;;;;6213415;28;20049;-69
2022/06/14 14:08:55;;;;;;;3.38;1.33;;;21.00;98.80;;;;;;6203124;28;20141;-68
2022/06/14 14:12:07;;;;;;;6.18;1.83;;;21.10;98.80;;;;;;6228708;28;20140;-68
2022/06/14 14:15:29;;;;;;;4.15;1.90;;;21.10;98.20;;;;;;6204405;28;20054;-68
2022/06/14 14:18:45;;;;;;;7.60;2.08;;;21.00;98.40;;;;;;6222615;28;20132;-69
2022/06/14 14:21:53;;;;;;;5.20;1.63;;;21.10;98.50;;;;;;6220324;28;20057;-68
2022/06/14 14:25:00;;;;;;;6.70;1.88;;;21.00;98.30;;;;;;6222218;28;20514;-69
2022/06/14 14:28:14;;;;;;;3.47;1.75;;;20.80;98.50;;;;;;6227422;28;20042;-69
2022/06/14 14:31:29;;;;;;;5.40;2.30;;;20.40;99.00;;;;;;6222275;28;20053;-67
2022/06/14 14:34:35;;;;;;;2.10;1.30;;;20.20;99.10;;;;;;6203861;28;20061;-69
2022/06/14 14:37:41;;;;;;;3.88;1.77;;;20.10;99.50;;;;;;6221061;28;20050;-69
2022/06/14 14:44:10;;;;;;;5.50;2.33;;;20.10;99.70;;;;;;6210052;28;20472;-69
2022/06/14 14:47:18;;;;;;;5.32;2.60;;;20.10;99.20;;;;;;6204510;28;20050;-69
2022/06/14 14:50:32;;;;;;;5.90;2.20;;;19.80;99.00;;;;;;6204049;28;20050;-68
2022/06/14 14:53:39;;;;;;;5.35;2.33;;;19.90;99.70;;;;;;6221859;28;20131;-68
2022/06/14 14:56:48;;;;;;;5.32;1.95;;;20.20;99.10;;;;;;6222095;28;20255;-68
2022/06/14 14:59:55;;;;;;;4.35;2.15;;;20.40;99.00;;;;;;6223172;28;20064;-69
2022/06/14 15:06:32;;;;;;;;;;;20.20;98.50;;;;;;6196788;28;20042;-68
2022/06/14 15:09:41;;;;;;;5.28;2.28;;;19.80;99.00;;;;;;6205478;28;19928;-68
2022/06/14 15:12:48;;;;;;;7.28;2.30;;;19.70;99.30;;;;;;6221570;28;20410;-67
2022/06/14 15:15:50;;;;;;;5.38;2.08;;;19.60;99.60;;;;;;6215700;28;20125;-67
2022/06/14 15:22:25;;;;;;;10.20;2.35;;;19.70;99.90;;;;;;6226053;28;20061;-70
2022/06/14 15:25:30;;;;;;;8.10;2.08;;;19.60;99.80;;;;;;6226555;28;20128;-68
2022/06/14 15:28:43;;;;;;;6.78;2.33;;;19.60;99.60;;;;;;6218292;28;20056;-68
2022/06/14 15:31:56;;;;;;;;;;;19.60;99.20;;;;;;6226582;28;20104;-69
2022/06/14 15:35:03;;;;;;;2.65;1.77;;;19.60;99.00;;;;;;6218875;28;19921;-68
2022/06/14 15:38:20;;;;;;;6.38;1.80;;;19.60;99.60;;;;;;6250527;28;20052;-68
2022/06/14 15:41:25;;;;;;;7.35;1.55;;;19.60;99.90;;;;;;6202587;28;20092;-69
2022/06/14 15:44:30;;;;;;;5.90;1.98;;;19.60;99.80;;;;;;6217324;28;20056;-69
2022/06/14 15:47:37;;;;;;;4.70;1.70;;;19.50;99.90;;;;;;6221563;28;20045;-69
2022/06/14 15:50:42;;;;;;;6.47;1.75;;;19.50;99.90;;;;;;6208117;28;20050;-69
2022/06/14 15:53:47;;;;;;;4.85;1.65;;;19.50;99.90;;;;;;6207545;28;20143;-69
2022/06/14 15:56:57;;;;;;;6.13;1.80;;;19.40;99.90;;;;;;6206949;28;20100;-69
2022/06/14 16:00:07;;;;;;;5.65;1.60;;;19.50;99.90;;;;;;6224185;28;20498;-70
2022/06/14 16:03:12;;;;;;;6.18;1.70;;;19.50;99.90;;;;;;6224659;28;20057;-70
2022/06/14 16:06:27;;;;;;;4.28;1.90;;;19.50;99.90;;;;;;6224720;28;20053;-70
2022/06/14 16:09:33;;;;;;;3.05;1.70;;;19.30;99.70;;;;;;6240603;28;20057;-69
2022/06/14 16:12:41;;;;;;;4.72;1.70;;;19.20;99.90;;;;;;6243772;28;20045;-70
2022/06/14 16:15:49;;;;;;;5.15;1.58;;;19.20;99.90;;;;;;6224021;28;20056;-70
2022/06/14 16:18:52;;;;;;;4.25;1.80;;;19.20;99.90;;;;;;6224764;28;20618;-70
2022/06/14 16:22:01;;;;;;;3.13;1.65;;;19.10;99.90;;;;;;6224280;28;20046;-70
2022/06/14 16:25:12;;;;;;;3.78;1.23;;;19.10;99.90;;;;;;6205959;28;20048;-70
2022/06/14 16:28:23;;;;;;;7.60;1.70;;;19.10;99.90;;;;;;6206543;28;20062;-69
2022/06/14 16:31:36;;;;;;;5.95;1.70;;;19.00;99.90;;;;;;6223614;28;20050;-68
2022/06/14 16:34:47;;;;;;;4.85;1.67;;;19.00;99.90;;;;;;6221303;28;20127;-69
2022/06/14 16:37:56;;;;;;;7.45;1.40;;;19.00;99.90;;;;;;6223366;28;20125;-69
2022/06/14 16:41:08;;;;;;;5.38;1.67;;;19.00;99.90;;;;;;6207228;28;20060;-69
2022/06/14 16:44:15;;;;;;;3.95;1.23;;;19.00;99.90;;;;;;6207985;28;20053;-70
2022/06/14 16:47:21;;;;;;;4.60;2.03;;;18.90;99.90;;;;;;6224349;28;20045;-69
2022/06/14 16:50:33;;;;;;;10.25;1.80;;;18.90;99.90;;;;;;6216001;28;20058;-69